createdAt,value
2023-05-14T00:01:10.123Z,13.10
2023-05-14T00:03:37.676Z,13.00
2023-05-14T00:06:04.608Z,13.00
2023-05-14T00:08:31.475Z,13.00
2023-05-14T00:10:58.949Z,13.00
2023-05-14T00:13:26.352Z,13.00
2023-05-14T00:15:53.352Z,13.00
2023-05-14T00:18:20.361Z,12.90
2023-05-14T00:20:47.176Z,12.90
2023-05-14T00:23:13.942Z,12.80
2023-05-14T00:25:40.780Z,12.80
2023-05-14T00:28:07.628Z,12.80
2023-05-14T00:30:34.997Z,12.80
2023-05-14T00:33:01.902Z,12.70
2023-05-14T00:35:29.138Z,12.70
2023-05-14T00:37:57.114Z,12.60
2023-05-14T00:40:27.659Z,12.60
2023-05-14T00:42:54.968Z,12.60
2023-05-14T00:45:21.939Z,12.50
2023-05-14T00:47:49.382Z,12.50
2023-05-14T00:50:16.637Z,12.50
2023-05-14T00:52:43.906Z,12.40
2023-05-14T00:55:12.914Z,12.40
2023-05-14T00:57:40.680Z,12.30
2023-05-14T01:00:07.963Z,12.30
2023-05-14T01:02:35.088Z,12.30
2023-05-14T01:05:02.327Z,12.30
2023-05-14T01:07:38.031Z,12.30
2023-05-14T01:10:37.481Z,12.20
2023-05-14T01:13:11.866Z,12.20
2023-05-14T01:15:39.737Z,12.10
2023-05-14T01:18:08.591Z,12.00
2023-05-14T01:20:35.966Z,12.00
2023-05-14T01:23:03.292Z,11.90
2023-05-14T01:25:30.891Z,11.90
2023-05-14T01:28:00.711Z,11.90
2023-05-14T01:30:31.116Z,11.90
2023-05-14T01:33:00.485Z,11.80
2023-05-14T01:35:28.456Z,11.80
2023-05-14T01:38:06.803Z,11.80
2023-05-14T01:40:36.698Z,11.70
2023-05-14T01:43:04.058Z,11.70
2023-05-14T01:45:31.197Z,11.70
2023-05-14T01:47:58.919Z,11.70
2023-05-14T01:50:25.927Z,11.60
2023-05-14T01:52:56.362Z,11.60
2023-05-14T01:55:26.127Z,11.60
2023-05-14T01:57:53.315Z,11.60
2023-05-14T02:00:20.926Z,11.50
2023-05-14T02:02:47.844Z,11.50
2023-05-14T02:05:14.707Z,11.50
2023-05-14T02:07:41.593Z,11.50
2023-05-14T02:10:09.362Z,11.50
2023-05-14T02:12:36.158Z,11.40
2023-05-14T02:15:03.882Z,11.40
2023-05-14T02:17:30.727Z,11.40
2023-05-14T02:19:57.544Z,11.40
2023-05-14T02:22:24.685Z,11.30
2023-05-14T02:24:51.606Z,11.30
2023-05-14T02:27:18.747Z,11.30
2023-05-14T02:29:45.523Z,11.30
2023-05-14T02:32:12.426Z,11.20
2023-05-14T02:34:39.428Z,11.20
2023-05-14T02:37:06.478Z,11.20
2023-05-14T02:39:33.310Z,11.20
2023-05-14T02:42:00.331Z,11.20
2023-05-14T02:44:27.105Z,11.20
2023-05-14T02:46:53.892Z,11.20
2023-05-14T02:49:20.956Z,11.20
2023-05-14T02:51:47.808Z,11.20
2023-05-14T02:54:16.433Z,11.10
2023-05-14T02:56:43.369Z,11.10
2023-05-14T02:59:10.486Z,11.10
2023-05-14T03:01:38.008Z,11.10
2023-05-14T03:04:05.613Z,11.10
2023-05-14T03:06:32.522Z,11.10
2023-05-14T03:08:59.422Z,11.00
2023-05-14T03:11:26.195Z,11.00
2023-05-14T03:13:52.959Z,10.90
2023-05-14T03:16:19.902Z,10.90
2023-05-14T03:18:46.762Z,10.90
2023-05-14T03:21:14.120Z,10.90
2023-05-14T03:23:40.904Z,10.80
2023-05-14T03:26:08.380Z,10.80
2023-05-14T03:28:35.183Z,10.80
2023-05-14T03:31:02.056Z,10.80
2023-05-14T03:33:31.110Z,10.70
2023-05-14T03:35:58.045Z,10.70
2023-05-14T03:38:24.953Z,10.70
2023-05-14T03:40:51.868Z,10.70
2023-05-14T03:43:18.731Z,10.60
2023-05-14T03:45:45.769Z,10.60
2023-05-14T03:48:12.924Z,10.60
2023-05-14T03:50:39.905Z,10.60
2023-05-14T03:53:06.786Z,10.60
2023-05-14T03:55:33.614Z,10.60
2023-05-14T03:58:00.556Z,10.60
2023-05-14T04:00:27.433Z,10.60
2023-05-14T04:02:54.518Z,10.60
2023-05-14T04:05:23.709Z,10.60
2023-05-14T04:07:52.520Z,10.60
2023-05-14T04:10:21.591Z,10.60
2023-05-14T04:12:48.773Z,10.60
2023-05-14T04:15:15.919Z,10.60
2023-05-14T04:17:43.101Z,10.60
2023-05-14T04:20:12.557Z,10.60
2023-05-14T04:22:39.548Z,10.60
2023-05-14T04:25:06.640Z,10.60
2023-05-14T04:27:34.154Z,10.70
2023-05-14T04:30:01.198Z,10.70
2023-05-14T04:32:28.025Z,10.70
2023-05-14T04:34:54.835Z,10.80
2023-05-14T04:37:21.622Z,10.90
2023-05-14T04:39:48.443Z,10.90
2023-05-14T04:42:15.305Z,11.00
2023-05-14T04:44:42.215Z,11.00
2023-05-14T04:47:09.000Z,11.10
2023-05-14T04:49:35.832Z,11.20
2023-05-14T04:52:02.644Z,11.20
2023-05-14T04:54:29.576Z,11.30
2023-05-14T04:56:56.517Z,11.40
2023-05-14T04:59:23.306Z,11.50
2023-05-14T05:01:50.167Z,11.50
2023-05-14T05:04:17.023Z,11.60
2023-05-14T05:06:43.816Z,11.70
2023-05-14T05:09:10.610Z,11.80
2023-05-14T05:11:37.908Z,11.80
2023-05-14T05:14:04.856Z,11.90
2023-05-14T05:16:31.798Z,12.00
2023-05-14T05:18:58.814Z,12.10
2023-05-14T05:21:25.754Z,12.20
2023-05-14T05:23:52.626Z,12.30
2023-05-14T05:26:19.533Z,12.30
2023-05-14T05:28:46.292Z,12.40
2023-05-14T05:31:13.173Z,12.50
2023-05-14T05:33:40.081Z,12.60
2023-05-14T05:36:06.980Z,12.70
2023-05-14T05:38:33.804Z,12.80
2023-05-14T05:41:00.658Z,12.90
2023-05-14T05:43:28.603Z,13.00
2023-05-14T05:45:55.537Z,13.10
2023-05-14T05:48:22.327Z,13.20
2023-05-14T05:50:49.333Z,13.30
2023-05-14T05:53:19.019Z,13.40
2023-05-14T05:55:45.857Z,13.50
2023-05-14T05:58:15.667Z,13.60
2023-05-14T06:00:42.544Z,13.70
2023-05-14T06:03:09.434Z,13.80
2023-05-14T06:05:36.414Z,13.90
2023-05-14T06:08:03.353Z,14.00
2023-05-14T06:10:30.214Z,14.10
2023-05-14T06:12:57.119Z,14.20
2023-05-14T06:15:23.962Z,14.30
2023-05-14T06:17:50.784Z,14.30
2023-05-14T06:20:17.700Z,14.40
2023-05-14T06:22:44.631Z,14.50
2023-05-14T06:25:11.592Z,14.50
2023-05-14T06:27:38.984Z,14.60
2023-05-14T06:30:06.937Z,14.70
2023-05-14T06:32:33.822Z,14.80
2023-05-14T06:35:01.609Z,14.90
2023-05-14T06:37:28.458Z,15.00
2023-05-14T06:39:57.642Z,15.10
2023-05-14T06:42:24.767Z,15.10
2023-05-14T06:44:51.614Z,15.20
2023-05-14T06:47:18.526Z,15.20
2023-05-14T06:49:45.453Z,15.30
2023-05-14T06:52:12.343Z,15.40
2023-05-14T06:54:39.445Z,15.50
2023-05-14T06:57:06.332Z,15.70
2023-05-14T06:59:33.344Z,15.80
2023-05-14T07:02:00.283Z,15.80
2023-05-14T07:04:27.108Z,15.90
2023-05-14T07:06:54.004Z,15.90
2023-05-14T07:09:20.851Z,15.90
2023-05-14T07:11:47.859Z,16.00
2023-05-14T07:14:14.723Z,16.00
2023-05-14T07:16:42.750Z,16.10
2023-05-14T07:19:09.627Z,16.20
2023-05-14T07:21:36.546Z,16.30
2023-05-14T07:24:03.420Z,16.30
2023-05-14T07:26:30.441Z,16.40
2023-05-14T07:28:57.375Z,16.50
2023-05-14T07:31:24.131Z,16.60
2023-05-14T07:33:51.049Z,16.60
2023-05-14T07:36:17.889Z,16.70
2023-05-14T07:38:44.731Z,16.80
2023-05-14T07:41:12.213Z,16.90
2023-05-14T07:43:40.485Z,16.90
2023-05-14T07:46:07.310Z,17.00
2023-05-14T07:48:34.173Z,17.00
2023-05-14T07:51:01.189Z,17.10
2023-05-14T07:53:27.978Z,17.10
2023-05-14T07:55:54.778Z,17.10
2023-05-14T07:58:21.571Z,17.20
2023-05-14T08:00:48.378Z,17.20
2023-05-14T08:03:15.570Z,17.20
2023-05-14T08:05:42.426Z,17.30
2023-05-14T08:08:09.289Z,17.30
2023-05-14T08:10:36.508Z,17.40
2023-05-14T08:13:05.513Z,17.40
2023-05-14T08:15:32.265Z,17.50
2023-05-14T08:18:03.454Z,17.60
2023-05-14T08:20:31.116Z,17.60
2023-05-14T08:22:58.153Z,17.70
2023-05-14T08:25:25.067Z,17.70
2023-05-14T08:27:53.671Z,17.80
2023-05-14T08:30:21.535Z,17.90
2023-05-14T08:32:48.479Z,17.90
2023-05-14T08:35:15.240Z,17.90
2023-05-14T08:37:41.987Z,18.00
2023-05-14T08:40:09.396Z,18.00
2023-05-14T08:42:37.745Z,18.00
2023-05-14T08:45:05.742Z,18.10
2023-05-14T08:47:33.582Z,18.20
2023-05-14T08:50:04.799Z,18.20
2023-05-14T08:52:32.175Z,18.30
2023-05-14T08:55:00.546Z,18.30
2023-05-14T08:57:28.535Z,18.30
2023-05-14T08:59:55.840Z,18.40
2023-05-14T09:02:28.226Z,18.40
2023-05-14T09:04:59.212Z,18.40
2023-05-14T09:07:26.005Z,18.40
2023-05-14T09:09:53.098Z,18.50
2023-05-14T09:12:20.141Z,18.50
2023-05-14T09:14:47.741Z,18.50
2023-05-14T09:17:14.588Z,18.60
2023-05-14T09:19:42.328Z,18.60
2023-05-14T09:22:10.263Z,18.70
2023-05-14T09:24:38.719Z,18.70
2023-05-14T09:27:06.436Z,18.70
2023-05-14T09:29:33.897Z,18.80
2023-05-14T09:32:05.667Z,18.80
2023-05-14T09:34:33.996Z,18.90
2023-05-14T09:37:02.520Z,19.00
2023-05-14T09:39:29.925Z,19.10
2023-05-14T09:41:56.847Z,19.10
2023-05-14T09:44:23.902Z,19.20
2023-05-14T09:46:51.270Z,19.30
2023-05-14T09:49:18.457Z,19.30
2023-05-14T09:51:45.906Z,19.40
2023-05-14T09:54:12.804Z,19.40
2023-05-14T09:56:40.267Z,19.40
2023-05-14T09:59:07.153Z,19.50
2023-05-14T10:01:34.531Z,19.50
2023-05-14T10:04:03.876Z,19.50
2023-05-14T10:06:32.780Z,19.50
2023-05-14T10:09:12.102Z,19.60
2023-05-14T10:11:41.315Z,19.70
2023-05-14T10:14:09.095Z,19.80
2023-05-14T10:16:41.223Z,19.80
2023-05-14T10:19:09.506Z,19.90
2023-05-14T10:21:38.132Z,19.90
2023-05-14T10:24:07.232Z,20.00
2023-05-14T10:26:37.817Z,20.00
2023-05-14T10:29:06.965Z,20.00
2023-05-14T10:31:56.164Z,20.00
2023-05-14T10:34:33.577Z,20.00
2023-05-14T10:37:04.652Z,19.90
2023-05-14T10:39:46.130Z,19.90
2023-05-14T10:42:14.039Z,20.00
2023-05-14T10:44:55.905Z,20.10
2023-05-14T10:47:22.716Z,20.10
2023-05-14T10:49:49.754Z,20.10
2023-05-14T10:52:18.610Z,20.20
2023-05-14T10:55:07.745Z,20.30
2023-05-14T10:57:36.031Z,20.40
2023-05-14T11:00:02.929Z,20.40
2023-05-14T11:02:37.117Z,20.50
2023-05-14T11:05:11.673Z,20.50
2023-05-14T11:07:39.283Z,20.60
2023-05-14T11:10:07.243Z,20.60
2023-05-14T11:12:34.714Z,20.60
2023-05-14T11:15:02.452Z,20.60
2023-05-14T11:17:29.943Z,20.70
2023-05-14T11:19:57.216Z,20.70
2023-05-14T11:22:24.199Z,20.70
2023-05-14T11:24:51.116Z,20.70
2023-05-14T11:27:18.816Z,20.80
2023-05-14T11:29:46.292Z,20.90
2023-05-14T11:32:13.896Z,20.90
2023-05-14T11:34:40.953Z,20.90
2023-05-14T11:37:08.251Z,20.80
2023-05-14T11:39:37.384Z,20.70
2023-05-14T11:42:05.097Z,20.70
2023-05-14T11:44:32.822Z,20.70
2023-05-14T11:47:01.267Z,20.60
2023-05-14T11:49:31.003Z,20.60
2023-05-14T11:51:58.531Z,20.60
2023-05-14T11:54:26.177Z,20.60
2023-05-14T11:56:54.200Z,20.60
2023-05-14T11:59:21.463Z,20.60
2023-05-14T12:01:50.607Z,20.50
2023-05-14T12:04:18.969Z,20.60
2023-05-14T12:06:46.721Z,20.60
2023-05-14T12:09:16.266Z,20.60
2023-05-14T12:11:43.468Z,20.60
2023-05-14T12:14:10.737Z,20.70
2023-05-14T12:16:39.652Z,20.70
2023-05-14T12:19:08.345Z,20.70
2023-05-14T12:21:35.298Z,20.70
2023-05-14T12:24:02.329Z,20.60
2023-05-14T12:26:32.319Z,20.60
2023-05-14T12:29:03.580Z,20.70
2023-05-14T12:31:31.348Z,20.70
2023-05-14T12:33:58.126Z,20.70
2023-05-14T12:36:25.098Z,20.80
2023-05-14T12:38:57.847Z,20.90
2023-05-14T12:41:24.664Z,20.90
2023-05-14T12:43:51.538Z,21.00
2023-05-14T12:46:18.663Z,21.00
2023-05-14T12:48:46.296Z,21.10
2023-05-14T12:51:13.274Z,21.10
2023-05-14T12:53:40.127Z,21.10
2023-05-14T12:56:07.049Z,21.10
2023-05-14T12:58:33.894Z,21.00
2023-05-14T13:01:00.761Z,21.00
2023-05-14T13:03:27.825Z,21.10
2023-05-14T13:05:54.764Z,21.10
2023-05-14T13:08:24.837Z,21.10
2023-05-14T13:10:52.192Z,21.20
2023-05-14T13:13:18.983Z,21.10
2023-05-14T13:15:46.831Z,21.20
2023-05-14T13:18:14.001Z,21.20
2023-05-14T13:20:43.117Z,21.20
2023-05-14T13:23:10.152Z,21.20
2023-05-14T13:25:37.105Z,21.20
2023-05-14T13:28:04.416Z,21.30
2023-05-14T13:30:32.313Z,21.20
2023-05-14T13:32:59.656Z,21.30
2023-05-14T13:35:26.871Z,21.30
2023-05-14T13:37:53.818Z,21.30
2023-05-14T13:40:20.975Z,21.30
2023-05-14T13:42:47.790Z,21.30
2023-05-14T13:45:14.720Z,21.30
2023-05-14T13:47:41.649Z,21.40
2023-05-14T13:50:08.747Z,21.50
2023-05-14T13:52:35.811Z,21.40
2023-05-14T13:55:02.573Z,21.50
2023-05-14T13:57:29.557Z,21.50
2023-05-14T13:59:56.622Z,21.50
2023-05-14T14:02:23.612Z,21.50
2023-05-14T14:04:52.978Z,21.50
2023-05-14T14:07:21.169Z,21.60
2023-05-14T14:09:48.055Z,21.60
2023-05-14T14:12:15.514Z,21.60
2023-05-14T14:14:42.313Z,21.60
2023-05-14T14:17:09.445Z,21.50
2023-05-14T14:19:36.670Z,21.50
2023-05-14T14:22:03.827Z,21.50
2023-05-14T14:24:30.735Z,21.50
2023-05-14T14:26:58.107Z,21.40
2023-05-14T14:29:24.938Z,21.40
2023-05-14T14:31:51.903Z,21.40
2023-05-14T14:34:18.846Z,21.40
2023-05-14T14:36:46.688Z,21.40
2023-05-14T14:39:13.477Z,21.50
2023-05-14T14:41:40.603Z,21.50
2023-05-14T14:44:07.330Z,21.50
2023-05-14T14:46:35.333Z,21.40
2023-05-14T14:49:02.209Z,21.40
2023-05-14T14:51:30.212Z,21.30
2023-05-14T14:53:57.192Z,21.40
2023-05-14T14:56:24.041Z,21.40
2023-05-14T14:58:50.858Z,21.40
2023-05-14T15:01:17.717Z,21.40
2023-05-14T15:03:45.690Z,21.40
2023-05-14T15:06:13.673Z,21.40
2023-05-14T15:08:40.836Z,21.40
2023-05-14T15:11:08.038Z,21.40
2023-05-14T15:13:34.910Z,21.40
2023-05-14T15:16:02.121Z,21.30
2023-05-14T15:18:28.967Z,21.30
2023-05-14T15:20:55.961Z,21.30
2023-05-14T15:23:22.722Z,21.30
2023-05-14T15:25:49.974Z,21.20
2023-05-14T15:28:16.970Z,21.20
2023-05-14T15:30:44.056Z,21.20
2023-05-14T15:33:10.815Z,21.20
2023-05-14T15:35:37.753Z,21.20
2023-05-14T15:38:04.532Z,21.20
2023-05-14T15:40:31.435Z,21.20
2023-05-14T15:42:58.214Z,21.20
2023-05-14T15:45:25.040Z,21.20
2023-05-14T15:47:51.958Z,21.20
2023-05-14T15:50:19.525Z,21.20
2023-05-14T15:52:46.592Z,21.20
2023-05-14T15:55:13.322Z,21.20
2023-05-14T15:57:40.269Z,21.10
2023-05-14T16:00:11.025Z,21.10
2023-05-14T16:02:41.282Z,21.10
2023-05-14T16:05:08.579Z,21.10
2023-05-14T16:07:35.832Z,21.10
2023-05-14T16:10:02.634Z,21.10
2023-05-14T16:12:29.408Z,21.00
2023-05-14T16:14:57.666Z,21.00
2023-05-14T16:17:29.846Z,20.90
2023-05-14T16:19:56.754Z,20.90
2023-05-14T16:22:24.707Z,20.90
2023-05-14T16:24:51.478Z,20.80
2023-05-14T16:27:21.196Z,20.90
2023-05-14T16:29:48.076Z,20.90
2023-05-14T16:32:14.895Z,20.90
2023-05-14T16:34:41.854Z,20.80
2023-05-14T16:37:09.287Z,20.90
2023-05-14T16:39:37.707Z,21.00
2023-05-14T16:42:04.666Z,20.90
2023-05-14T16:44:31.535Z,20.90
2023-05-14T16:46:58.343Z,20.90
2023-05-14T16:49:25.417Z,20.90
2023-05-14T16:51:52.156Z,20.80
2023-05-14T16:54:19.044Z,20.80
2023-05-14T16:56:48.136Z,20.70
2023-05-14T16:59:16.022Z,20.70
2023-05-14T17:01:43.372Z,20.70
2023-05-14T17:04:10.501Z,20.70
2023-05-14T17:06:37.306Z,20.70
2023-05-14T17:09:05.200Z,20.80
2023-05-14T17:11:32.553Z,20.80
2023-05-14T17:13:59.327Z,20.70
2023-05-14T17:16:27.109Z,20.60
2023-05-14T17:18:54.071Z,20.60
2023-05-14T17:21:20.893Z,20.60
2023-05-14T17:23:47.876Z,20.50
2023-05-14T17:26:14.697Z,20.50
2023-05-14T17:28:41.469Z,20.40
2023-05-14T17:31:08.293Z,20.30
2023-05-14T17:33:35.430Z,20.30
2023-05-14T17:36:02.340Z,20.30
2023-05-14T17:38:29.082Z,20.30
2023-05-14T17:40:56.081Z,20.20
2023-05-14T17:43:22.978Z,20.10
2023-05-14T17:45:54.269Z,20.10
2023-05-14T17:48:22.499Z,20.00
2023-05-14T17:50:49.751Z,19.90
2023-05-14T17:53:16.641Z,19.90
2023-05-14T17:55:43.791Z,19.90
2023-05-14T17:58:11.592Z,19.90
2023-05-14T18:00:38.531Z,19.90
2023-05-14T18:03:05.651Z,19.90
2023-05-14T18:05:32.537Z,19.80
2023-05-14T18:08:00.101Z,19.80
2023-05-14T18:10:29.347Z,19.70
2023-05-14T18:12:56.793Z,19.70
2023-05-14T18:15:25.566Z,19.70
2023-05-14T18:17:53.118Z,19.70
2023-05-14T18:20:20.173Z,19.60
2023-05-14T18:22:47.105Z,19.60
2023-05-14T18:25:14.060Z,19.60
2023-05-14T18:27:44.904Z,19.60
2023-05-14T18:30:13.682Z,19.50
2023-05-14T18:32:41.470Z,19.50
2023-05-14T18:35:08.585Z,19.50
2023-05-14T18:37:35.652Z,19.40
2023-05-14T18:40:02.842Z,19.40
2023-05-14T18:42:30.102Z,19.30
2023-05-14T18:44:57.192Z,19.30
2023-05-14T18:47:24.388Z,19.30
2023-05-14T18:49:55.059Z,19.20
2023-05-14T18:52:22.901Z,19.20
2023-05-14T18:54:50.630Z,19.10
2023-05-14T18:57:17.430Z,19.10
2023-05-14T18:59:44.246Z,19.00
2023-05-14T19:02:11.087Z,18.90
2023-05-14T19:04:50.764Z,18.90
2023-05-14T19:07:19.200Z,18.80
2023-05-14T19:09:46.349Z,18.70
2023-05-14T19:12:13.713Z,18.70
2023-05-14T19:14:40.633Z,18.60
2023-05-14T19:17:08.752Z,18.50
2023-05-14T19:19:35.556Z,18.40
2023-05-14T19:22:02.472Z,18.40
2023-05-14T19:24:29.284Z,18.40
2023-05-14T19:26:56.140Z,18.40
2023-05-14T19:29:23.221Z,18.30
2023-05-14T19:31:51.144Z,18.20
2023-05-14T19:34:18.201Z,18.20
2023-05-14T19:36:46.284Z,18.10
2023-05-14T19:39:13.080Z,18.00
2023-05-14T19:41:42.267Z,17.90
2023-05-14T19:44:11.352Z,17.90
2023-05-14T19:46:43.933Z,17.80
2023-05-14T19:49:10.821Z,17.70
2023-05-14T19:51:40.943Z,17.70
2023-05-14T19:54:08.284Z,17.60
2023-05-14T19:56:40.914Z,17.50
2023-05-14T19:59:07.729Z,17.40
2023-05-14T20:01:35.826Z,17.30
2023-05-14T20:04:06.168Z,17.20
2023-05-14T20:06:34.302Z,17.20
2023-05-14T20:09:02.496Z,17.10
2023-05-14T20:11:33.285Z,17.00
2023-05-14T20:14:04.461Z,17.00
2023-05-14T20:16:32.053Z,16.90
2023-05-14T20:18:58.899Z,16.80
2023-05-14T20:21:28.282Z,16.70
2023-05-14T20:23:55.249Z,16.70
2023-05-14T20:26:24.981Z,16.60
2023-05-14T20:28:55.041Z,16.60
2023-05-14T20:31:25.613Z,16.60
2023-05-14T20:33:56.160Z,16.50
2023-05-14T20:36:26.395Z,16.50
2023-05-14T20:38:56.090Z,16.40
2023-05-14T20:41:26.392Z,16.30
2023-05-14T20:43:56.825Z,16.30
2023-05-14T20:46:23.845Z,16.20
2023-05-14T20:48:54.215Z,16.10
2023-05-14T20:51:22.426Z,16.00
2023-05-14T20:53:52.975Z,16.00
2023-05-14T20:56:22.549Z,16.00
2023-05-14T20:58:51.648Z,15.90
2023-05-14T21:01:21.821Z,15.90
2023-05-14T21:03:51.144Z,15.80
2023-05-14T21:06:17.999Z,15.80
2023-05-14T21:08:46.340Z,15.70
2023-05-14T21:11:14.166Z,15.70
2023-05-14T21:13:42.491Z,15.60
2023-05-14T21:16:12.734Z,15.60
2023-05-14T21:18:42.511Z,15.50
2023-05-14T21:21:13.732Z,15.50
2023-05-14T21:23:40.575Z,15.40
2023-05-14T21:26:07.851Z,15.40
2023-05-14T21:28:35.130Z,15.40
2023-05-14T21:31:03.234Z,15.30
2023-05-14T21:33:32.490Z,15.30
2023-05-14T21:35:59.288Z,15.20
2023-05-14T21:38:28.915Z,15.20
2023-05-14T21:40:55.750Z,15.10
2023-05-14T21:43:27.091Z,15.10
2023-05-14T21:45:54.355Z,15.00
2023-05-14T21:48:28.619Z,15.00
2023-05-14T21:50:55.881Z,14.90
2023-05-14T21:53:26.070Z,14.90
2023-05-14T21:55:53.756Z,14.90
2023-05-14T21:58:21.162Z,14.90
2023-05-14T22:00:47.904Z,14.80
2023-05-14T22:03:18.208Z,14.70
2023-05-14T22:05:45.303Z,14.70
2023-05-14T22:08:14.395Z,14.70
2023-05-14T22:10:41.573Z,14.60
2023-05-14T22:13:08.571Z,14.60
2023-05-14T22:15:37.589Z,14.60
2023-05-14T22:18:07.104Z,14.50
2023-05-14T22:20:36.898Z,14.50
2023-05-14T22:23:05.307Z,14.50
2023-05-14T22:25:32.059Z,14.50
2023-05-14T22:27:58.901Z,14.50
2023-05-14T22:30:25.882Z,14.40
2023-05-14T22:32:55.906Z,14.40
2023-05-14T22:35:26.426Z,14.40
2023-05-14T22:37:53.407Z,14.30
2023-05-14T22:40:22.876Z,14.30
2023-05-14T22:42:49.836Z,14.20
2023-05-14T22:45:25.434Z,14.20
2023-05-14T22:47:55.877Z,14.20
2023-05-14T22:50:25.640Z,14.10
2023-05-14T22:52:54.184Z,14.00
2023-05-14T22:55:24.116Z,13.90
2023-05-14T22:57:53.471Z,13.90
2023-05-14T23:00:22.700Z,13.90
2023-05-14T23:02:49.718Z,13.90
2023-05-14T23:05:16.623Z,13.90
2023-05-14T23:07:44.205Z,13.90
2023-05-14T23:10:16.533Z,13.90
2023-05-14T23:12:43.335Z,13.80
2023-05-14T23:15:10.324Z,13.80
2023-05-14T23:17:37.806Z,13.80
2023-05-14T23:20:10.538Z,13.80
2023-05-14T23:22:37.405Z,13.70
2023-05-14T23:25:04.350Z,13.70
2023-05-14T23:27:31.388Z,13.60
2023-05-14T23:29:58.231Z,13.60
2023-05-14T23:32:25.270Z,13.50
2023-05-14T23:34:52.214Z,13.50
2023-05-14T23:37:19.020Z,13.40
2023-05-14T23:39:46.059Z,13.30
2023-05-14T23:42:12.961Z,13.30
2023-05-14T23:44:40.092Z,13.20
2023-05-14T23:47:08.735Z,13.20
2023-05-14T23:49:35.805Z,13.20
2023-05-14T23:52:02.691Z,13.10
2023-05-14T23:54:29.532Z,13.10
2023-05-14T23:56:56.393Z,13.10
2023-05-14T23:59:23.183Z,13.20
